Time;durP1;ratioP1;P1;durP2;ratioP2;P2;SDS_P1;SDS_P2;PMS_P1;PMS_P2;Temp;Humidity;BMP_temperature;BMP_pressure;BME280_temperature;BME280_humidity;BME280_pressure;Samples;Min_cycle;Max_cycle;Signal;HPM_P1;HPM_P2
2021/05/15 00:00:01;;;;;;;7.03;4.99;;;;;;;14.48;62.40;98702.33;285315;119;3114168;-71
2021/05/15 00:01:09;;;;;;;5.80;4.69;;;;;;;14.49;62.53;98706.61;307023;119;2168637;-70
2021/05/15 00:03:33;;;;;;;7.59;5.29;;;;;;;14.61;62.89;98705.78;332844;117;2194732;-70
2021/05/15 00:04:39;;;;;;;7.01;5.07;;;;;;;14.49;63.13;98705.80;316494;119;2168544;-71
2021/05/15 00:05:45;;;;;;;5.41;4.85;;;;;;;14.52;62.72;98703.22;302952;119;2168719;-70
2021/05/15 00:06:51;;;;;;;6.36;4.88;;;;;;;14.51;62.73;98704.34;309459;121;2167660;-71
2021/05/15 00:07:59;;;;;;;6.51;5.03;;;;;;;14.52;63.08;98703.22;309773;119;2168624;-70
2021/05/15 00:09:07;;;;;;;5.67;4.74;;;;;;;14.55;63.11;98710.63;315797;119;2168848;-72
2021/05/15 00:10:13;;;;;;;6.11;5.46;;;;;;;14.56;62.78;98708.73;279177;119;2299393;-72
2021/05/15 00:11:19;;;;;;;5.84;5.10;;;;;;;14.56;62.66;98709.52;316043;119;2167636;-72
2021/05/15 00:12:24;;;;;;;6.74;5.19;;;;;;;14.54;62.92;98711.75;316269;119;2170665;-72
2021/05/15 00:13:31;;;;;;;8.02;5.38;;;;;;;14.52;62.96;98715.94;274837;119;2996816;-72
2021/05/15 00:14:36;;;;;;;5.78;4.87;;;;;;;14.52;62.72;98715.94;290382;119;2171621;-73
2021/05/15 00:15:42;;;;;;;6.77;5.12;;;;;;;14.49;62.96;98720.09;313233;119;2168581;-72
2021/05/15 00:17:58;;;;;;;5.85;4.85;;;;;;;14.45;63.93;98704.91;332792;117;2190678;-72
2021/05/15 00:19:05;;;;;;;6.99;5.01;;;;;;;14.28;64.07;98714.03;284783;119;2808947;-72
2021/05/15 00:21:30;;;;;;;6.39;4.79;;;;;;;14.30;64.69;98709.09;320096;116;2200759;-73
2021/05/15 04:41:07;;;;;;;5.89;2.66;;;;;;;15.51;64.19;98829.91;329149;117;2192578;-75
2021/05/15 04:43:30;;;;;;;3.63;2.75;;;;;;;15.52;64.23;98831.48;309851;116;2461815;-76
2021/05/15 04:45:55;;;;;;;3.29;2.49;;;;;;;15.45;64.37;98828.59;328105;117;2197855;-75
2021/05/15 04:48:12;;;;;;;4.94;2.69;;;;;;;15.44;64.84;98834.34;323715;119;2194810;-73
2021/05/15 04:50:32;;;;;;;3.48;2.56;;;;;;;15.47;64.80;98834.45;324810;118;2194800;-72
2021/05/15 04:53:00;;;;;;;4.75;2.96;;;;;;;15.40;64.92;98828.82;298462;117;3153998;-74
2021/05/15 04:55:20;;;;;;;4.44;2.41;;;;;;;15.42;64.78;98837.39;300210;118;2192802;-74
2021/05/15 04:56:35;;;;;;;4.55;2.74;;;;;;;15.34;64.71;98830.20;305123;119;2169315;-74
2021/05/15 04:58:53;;;;;;;3.88;2.80;;;;;;;15.48;64.69;98838.70;331812;117;2190711;-73
2021/05/15 05:01:10;;;;;;;3.29;2.61;;;;;;;15.58;64.42;98840.94;322692;119;2195722;-72
2021/05/15 05:03:37;;;;;;;2.72;2.44;;;;;;;15.55;64.46;98838.90;308425;117;2562944;-74
2021/05/15 05:05:56;;;;;;;3.91;2.51;;;;;;;15.53;64.55;98846.58;325563;117;2193713;-75
2021/05/15 05:08:12;;;;;;;5.16;2.92;;;;;;;15.45;64.75;98847.51;327989;117;2193028;-73
2021/05/15 05:10:38;;;;;;;5.77;2.83;;;;;;;15.52;64.71;98852.33;329902;117;2190805;-74
2021/05/15 05:12:56;;;;;;;3.30;2.85;;;;;;;15.39;64.57;98855.07;322359;114;2278771;-75
2021/05/15 05:15:13;;;;;;;3.08;2.74;;;;;;;15.64;64.53;98859.59;301572;113;2572005;-73
2021/05/15 05:17:31;;;;;;;3.06;2.67;;;;;;;15.86;63.66;98872.59;322702;117;2193723;-73
2021/05/15 05:19:48;;;;;;;3.80;2.96;;;;;;;15.96;63.28;98870.54;327649;117;2194739;-75
2021/05/15 05:22:13;;;;;;;2.64;2.44;;;;;;;16.07;63.13;98864.27;307234;117;2193706;-76
2021/05/15 05:24:34;;;;;;;4.40;2.91;;;;;;;16.22;62.77;98865.43;323543;118;2194790;-75
2021/05/15 05:26:51;;;;;;;3.58;2.96;;;;;;;16.35;62.22;98868.06;319506;119;2192668;-74
2021/05/15 05:29:14;;;;;;;4.49;2.92;;;;;;;16.39;62.01;98863.53;330601;117;2192635;-73
2021/05/15 05:31:31;;;;;;;3.28;2.76;;;;;;;16.38;62.12;98865.46;330526;117;2192796;-74
2021/05/15 05:33:47;;;;;;;3.76;2.73;;;;;;;16.46;61.95;98865.64;319647;116;2193711;-75
2021/05/15 05:36:12;;;;;;;4.11;3.30;;;;;;;16.58;61.42;98865.52;319123;119;2193774;-74
2021/05/15 05:38:29;;;;;;;4.68;3.52;;;;;;;16.54;61.59;98867.39;307466;117;3171931;-75
2021/05/15 05:40:53;;;;;;;3.68;3.22;;;;;;;17.01;60.70;98871.20;300175;117;3139024;-73
2021/05/15 05:43:10;;;;;;;4.35;3.28;;;;;;;17.29;59.66;98873.73;327256;114;2191419;-75
2021/05/15 05:45:28;;;;;;;3.51;2.91;;;;;;;17.60;59.13;98878.27;299795;112;2195053;-74
2021/05/15 05:47:58;;;;;;;8.54;3.54;;;;;;;17.40;58.22;98817.81;329794;116;2193760;-74
2021/05/15 05:50:37;;;;;;;6.07;3.04;;;;;;;18.34;56.25;98876.55;301479;110;2276403;31
2021/05/15 05:53:00;;;;;;;3.11;2.71;;;;;;;18.48;56.32;98886.88;292494;119;2192769;-75
2021/05/15 05:55:16;;;;;;;3.53;3.11;;;;;;;18.54;55.60;98877.26;328601;117;2192755;-76
2021/05/15 05:57:38;;;;;;;3.36;2.97;;;;;;;18.54;56.12;98873.77;277942;113;3081018;-75
2021/05/15 05:59:54;;;;;;;3.33;2.92;;;;;;;18.51;55.63;98888.86;330685;117;2193741;-74
2021/05/15 06:02:13;;;;;;;4.36;3.11;;;;;;;18.32;55.87;98884.28;325106;117;2181691;-74
2021/05/15 06:04:30;;;;;;;5.67;3.19;;;;;;;18.05;57.11;98899.68;329803;117;2191398;-75
2021/05/15 06:05:37;;;;;;;3.34;3.04;;;;;;;17.93;57.07;98895.98;271521;116;2854802;-74
2021/05/15 06:07:54;;;;;;;4.71;2.86;;;;;;;17.77;57.39;98889.81;327349;117;2192609;-75
2021/05/15 06:10:12;;;;;;;3.72;3.25;;;;;;;17.71;57.89;98893.97;325079;112;2192749;-76
2021/05/15 06:12:38;;;;;;;3.18;2.87;;;;;;;17.67;58.41;98895.82;284822;119;2952059;-73
2021/05/15 06:15:03;;;;;;;3.82;3.01;;;;;;;17.87;57.84;98889.26;322051;119;2192557;-74
2021/05/15 06:16:08;;;;;;;4.70;3.45;;;;;;;17.87;57.84;98897.40;294469;120;2168712;-74
2021/05/15 06:18:25;;;;;;;3.13;2.75;;;;;;;18.21;57.38;98894.95;323562;111;2195635;-72
2021/05/15 06:20:48;;;;;;;3.78;3.14;;;;;;;18.35;56.57;98897.13;327939;117;2193918;-74
2021/05/15 06:23:05;;;;;;;3.99;3.06;;;;;;;18.66;55.91;98898.80;297625;117;2242715;-73
2021/05/15 06:25:24;;;;;;;3.95;3.03;;;;;;;18.75;55.18;98895.06;326208;117;2277716;-73
2021/05/15 06:27:41;;;;;;;4.27;2.70;;;;;;;19.49;53.63;98900.02;330217;117;2184759;-73
2021/05/15 06:28:55;;;;;;;3.94;2.97;;;;;;;19.45;52.63;98899.19;312963;119;2168684;-75
2021/05/15 06:31:31;;;;;;;4.58;2.92;;;;;;;19.30;53.32;98906.39;330481;113;2194695;-75
2021/05/15 06:33:48;;;;;;;4.08;2.63;;;;;;;19.02;53.87;98906.77;324165;117;2194717;-75
2021/05/15 06:35:00;;;;;;;5.58;2.71;;;;;;;19.49;52.86;98910.13;306871;119;2173730;-74
2021/05/15 06:37:19;;;;;;;5.51;2.78;;;;;;;22.08;47.36;98909.47;280231;115;2443959;-76
2021/05/15 06:39:38;;;;;;;3.56;2.70;;;;;;;22.71;45.26;98911.12;281851;119;2884006;-75
2021/05/15 06:42:01;;;;;;;7.13;3.10;;;;;;;23.48;44.42;98912.59;309972;117;2199623;-73
2021/05/15 06:44:18;;;;;;;3.52;3.24;;;;;;;25.09;40.49;98908.05;328502;117;2193719;-75
2021/05/15 06:46:43;;;;;;;;;;;;;;;25.87;37.81;98910.34;359098;107;2195617;-75
2021/05/15 06:49:01;;;;;;;4.22;2.73;;;;;;;26.65;37.48;98924.16;326807;117;2278636;-76
2021/05/15 06:50:09;;;;;;;4.41;2.55;;;;;;;26.74;36.36;98915.39;309848;119;2168589;-77
2021/05/15 06:52:27;;;;;;;4.07;2.13;;;;;;;26.05;36.97;98920.32;322249;119;2171782;-75
2021/05/15 06:54:44;;;;;;;;;;;;;;;24.98;38.90;98923.84;291931;117;2942945;-75
2021/05/15 06:57:13;;;;;;;2.87;2.21;;;;;;;23.54;40.53;98930.19;323378;119;2179669;-76
2021/05/15 06:59:47;;;;;;;2.93;2.30;;;;;;;22.36;43.29;98929.85;317354;119;2192706;-75
2021/05/15 07:02:06;;;;;;;3.14;2.49;;;;;;;22.22;44.12;98922.38;323104;116;2193819;-76
2021/05/15 07:03:21;;;;;;;4.17;2.27;;;;;;;21.95;44.40;98924.63;293970;125;2168653;-76
2021/05/15 07:05:42;;;;;;;3.06;2.34;;;;;;;21.85;44.97;98925.39;307789;117;2613017;-78
2021/05/15 07:08:09;;;;;;;3.38;2.28;;;;;;;21.91;44.84;98932.06;301648;114;2650023;-75
2021/05/15 07:10:35;;;;;;;3.67;2.18;;;;;;;23.75;41.17;98934.80;319623;119;2192768;-78
2021/05/15 07:12:58;;;;;;;5.44;2.47;;;;;;;25.13;37.68;98943.70;329192;117;2196706;-77
2021/05/15 07:15:15;;;;;;;4.62;2.87;;;;;;;25.44;37.35;98939.08;328680;117;2193641;-76
2021/05/15 07:17:39;;;;;;;;;;;;;;;25.92;36.36;98936.56;321513;119;2193793;-76
2021/05/15 07:19:56;;;;;;;2.72;2.51;;;;;;;25.96;36.28;98940.05;285279;117;2448015;-73
2021/05/15 07:21:01;;;;;;;4.32;2.34;;;;;;;25.34;36.31;98941.96;289653;114;2169083;-79
2021/05/15 07:22:07;;;;;;;2.91;2.18;;;;;;;25.51;36.73;98956.68;294912;121;2168737;-81
2021/05/15 07:24:28;;;;;;;3.98;2.35;;;;;;;26.32;35.19;98932.11;318663;115;2193773;-78
2021/05/15 07:26:56;;;;;;;3.58;2.63;;;;;;;26.79;35.17;98950.68;302316;114;2193739;-79
2021/05/15 07:29:14;;;;;;;;;;;;;;;27.31;34.25;98951.34;300285;117;2200533;-76
2021/05/15 07:31:50;;;;;;;3.58;2.51;;;;;;;28.18;31.86;98945.70;282220;119;2962678;-75
2021/05/15 07:34:07;;;;;;;3.74;2.90;;;;;;;27.50;33.58;98942.34;325282;117;2192729;-74
2021/05/15 07:36:43;;;;;;;3.06;2.38;;;;;;;25.92;35.81;98955.80;327687;116;2192754;-77
2021/05/15 07:39:07;;;;;;;3.24;2.50;;;;;;;26.43;34.95;98948.45;331217;117;2193786;-82
2021/05/15 07:41:27;;;;;;;2.21;1.94;;;;;;;25.10;36.96;98952.75;303250;117;2193736;-76
2021/05/15 07:43:46;;;;;;;2.67;2.01;;;;;;;24.68;37.19;98949.95;346211;109;2192842;-76
2021/05/15 07:49:24;;;;;;;3.44;2.38;;;;;;;26.12;35.75;98953.99;297821;117;2828683;-76
2021/05/15 07:50:32;;;;;;;4.07;2.42;;;;;;;25.38;36.61;98951.70;306250;114;2169720;-76
2021/05/15 08:27:50;;;;;;;2.78;2.42;;;;;;;25.44;36.49;98947.31;308252;118;2168671;-75
2021/05/15 08:28:53;;;;;;;4.78;2.47;;;;;;;23.94;38.98;98947.24;294916;127;2169692;-75
2021/05/15 09:02:56;;;;;;;5.23;2.93;;;;;;;21.11;46.78;98957.31;317752;112;2179773;-77
2021/05/15 09:04:02;;;;;;;3.69;2.59;;;;;;;20.94;46.70;98962.25;311159;120;2175761;-76
2021/05/15 09:05:17;;;;;;;3.61;2.43;;;;;;;20.87;46.76;98959.47;311814;120;2168686;-76
2021/05/15 09:06:23;;;;;;;3.37;2.69;;;;;;;21.13;46.16;98958.50;294301;119;2169733;-77
2021/05/15 09:07:29;;;;;;;4.36;2.79;;;;;;;21.31;45.79;98964.08;267564;126;2683103;-77
2021/05/15 09:08:36;;;;;;;3.21;2.56;;;;;;;21.67;45.38;98958.06;291097;126;2168772;-77
2021/05/15 09:09:41;;;;;;;4.56;2.28;;;;;;;21.97;44.32;98955.08;304261;120;2168742;-79
2021/05/15 09:10:48;;;;;;;3.56;1.88;;;;;;;22.03;42.54;98964.45;313400;119;2168792;-77
2021/05/15 09:11:55;;;;;;;3.58;2.19;;;;;;;21.59;43.54;98965.45;281877;121;2168823;-78
2021/05/15 09:14:30;;;;;;;2.13;1.86;;;;;;;21.80;43.49;98963.97;330199;117;2193865;-78
2021/05/15 09:43:28;;;;;;;3.46;2.47;;;;;;;19.54;48.71;98966.94;299501;117;2815018;-77
2021/05/15 09:44:40;;;;;;;3.39;2.03;;;;;;;19.50;47.73;98974.27;308576;121;2168809;-77
2021/05/15 09:46:59;;;;;;;3.28;2.53;;;;;;;19.81;47.67;98972.37;333010;117;2168650;-79
2021/05/15 09:48:06;;;;;;;3.77;2.28;;;;;;;19.71;47.89;98983.84;316166;119;2177738;-77
2021/05/15 09:49:15;;;;;;;2.43;2.19;;;;;;;19.53;48.16;98978.97;290673;114;2604929;-78
2021/05/15 09:50:23;;;;;;;3.37;2.66;;;;;;;19.59;48.15;98974.76;270171;120;2170785;-73
2021/05/15 09:51:28;;;;;;;4.49;2.51;;;;;;;18.95;48.50;98872.12;305636;122;2168609;-78
2021/05/15 09:52:34;;;;;;;3.46;2.30;;;;;;;19.76;48.09;98973.42;305587;123;2168604;-76
2021/05/15 09:54:53;;;;;;;3.41;3.04;;;;;;;20.01;48.20;98979.21;327435;116;2278773;-75
2021/05/15 09:57:16;;;;;;;3.30;2.38;;;;;;;19.35;52.27;98982.20;322308;117;2200742;-73
2021/05/15 09:59:37;;;;;;;3.19;2.59;;;;;;;19.22;54.83;98982.77;330927;116;2217571;-73
2021/05/15 10:02:03;;;;;;;2.78;2.32;;;;;;;19.43;52.93;98977.66;328124;117;2196603;-77
2021/05/15 10:04:30;;;;;;;2.77;2.55;;;;;;;19.79;51.60;98986.34;320476;112;2191568;-73
2021/05/15 10:06:56;;;;;;;5.33;2.61;;;;;;;19.97;51.47;98983.05;295903;117;2257478;-75
2021/05/15 10:09:30;;;;;;;3.21;2.75;;;;;;;19.96;52.01;98987.72;311036;116;2193691;-72
2021/05/15 10:11:50;;;;;;;3.27;1.98;;;;;;;19.32;50.50;98993.04;320959;119;2195772;-73
2021/05/15 10:14:08;;;;;;;3.39;2.24;;;;;;;19.07;49.71;99008.95;330906;114;2193661;-72
2021/05/15 10:16:27;;;;;;;2.53;1.87;;;;;;;18.49;50.25;99016.08;315282;115;2180896;-72
2021/05/15 10:18:43;;;;;;;9.93;3.02;;;;;;;18.76;53.78;99011.52;329964;117;2197066;-72
2021/05/15 10:22:18;;;;;;;4.21;2.52;;;;;;;20.42;49.74;99011.17;324580;117;2278747;-73
2021/05/15 10:24:44;;;;;;;3.52;2.66;;;;;;;20.79;49.61;99002.25;328893;117;2194651;-73
2021/05/15 10:27:03;;;;;;;3.84;2.62;;;;;;;21.62;48.84;99011.07;318415;119;2191046;-74
2021/05/15 10:29:22;;;;;;;4.80;2.76;;;;;;;22.41;45.78;99007.92;330703;117;2193929;-73
2021/05/15 10:31:53;;;;;;;2.66;2.31;;;;;;;23.45;45.75;99009.95;303163;117;2195663;-74
2021/05/15 10:34:14;;;;;;;4.16;2.03;;;;;;;24.01;41.62;98998.48;332801;117;2193849;-75
2021/05/15 10:36:48;;;;;;;3.46;2.70;;;;;;;23.40;43.89;99002.92;322701;116;2196674;-74
2021/05/15 10:39:25;;;;;;;3.13;2.52;;;;;;;23.25;43.05;98993.17;333078;117;2193855;-73
2021/05/15 10:41:50;;;;;;;3.27;2.73;;;;;;;22.71;43.87;99002.13;329286;116;2197118;-74
2021/05/15 10:44:11;;;;;;;3.16;2.47;;;;;;;21.80;45.83;99004.91;332814;117;2192668;-72
2021/05/15 10:46:28;;;;;;;;;;;;;;;21.84;43.95;98995.59;335922;117;2194634;-73
2021/05/15 10:50:49;;;;;;;2.84;2.21;;;;;;;22.37;42.53;98999.73;332817;117;2181089;-73
2021/05/15 10:51:55;;;;;;;2.26;1.98;;;;;;;22.16;43.07;99007.81;316161;119;2175658;-73
2021/05/15 10:53:01;;;;;;;4.49;2.02;;;;;;;21.77;43.05;99013.88;294224;119;2545993;-72
2021/05/15 10:54:08;;;;;;;2.06;1.89;;;;;;;22.17;43.70;99012.11;289563;119;2169564;-73
2021/05/15 10:56:32;;;;;;;4.14;2.22;;;;;;;21.78;43.46;99009.98;333383;117;2194643;-73
2021/05/15 11:17:12;;;;;;;2.52;1.52;;;;;;;16.54;63.05;99041.43;297952;117;2332148;-73
2021/05/15 11:19:50;;;;;;;4.17;1.91;;;;;;;17.69;61.65;99042.70;330241;115;2184637;-72
2021/05/15 11:22:16;;;;;;;5.37;2.11;;;;;;;18.28;60.53;99035.46;291545;117;3185040;-72
2021/05/15 11:24:43;;;;;;;2.21;1.72;;;;;;;18.04;61.16;99037.31;328703;117;2182833;-73
2021/05/15 11:27:14;;;;;;;4.53;2.32;;;;;;;18.51;59.46;99038.22;295243;118;2776119;-72
2021/05/15 11:29:35;;;;;;;3.72;2.18;;;;;;;18.81;59.45;99034.88;302877;115;2446905;-73
2021/05/15 11:32:04;;;;;;;5.38;2.75;;;;;;;19.63;56.20;99024.56;307510;117;2192759;-74
2021/05/15 11:34:28;;;;;;;4.03;2.52;;;;;;;20.17;54.75;99024.51;297462;114;3104114;-72
2021/05/15 11:38:06;;;;;;;6.20;2.97;;;;;;;21.63;51.26;99022.76;291999;117;2349329;-72
2021/05/15 11:40:31;;;;;;;2.75;2.04;;;;;;;22.64;49.67;99023.98;329308;117;2281657;-74
2021/05/15 11:41:43;;;;;;;4.86;1.79;;;;;;;22.97;48.12;99022.06;307974;121;2168762;-74
2021/05/15 11:44:06;;;;;;;2.92;2.11;;;;;;;23.89;45.33;99018.88;321795;118;2192779;-73
2021/05/15 11:47:36;;;;;;;2.36;1.73;;;;;;;25.02;44.11;99017.09;328420;117;2172609;-74
2021/05/15 11:49:57;;;;;;;4.08;2.26;;;;;;;24.78;44.04;99020.39;324602;112;2194845;-73
2021/05/15 11:52:14;;;;;;;4.02;1.98;;;;;;;24.43;46.26;99013.15;332635;117;2193752;-73
2021/05/15 11:54:33;;;;;;;2.26;1.84;;;;;;;22.80;43.00;99014.64;346864;109;2192754;-72
2021/05/15 11:55:38;;;;;;;3.31;2.13;;;;;;;;;;322412;113;2168769;-75
2021/05/15 11:58:02;;;;;;;1.99;1.75;;;;;;;;;;331529;117;2192625;-73
2021/05/15 12:12:05;;;;;;;;;;;;;;;21.05;47.00;99012.22;339510;109;2197040;-73
2021/05/15 12:13:13;;;;;;;2.79;1.71;;;;;;;20.91;47.18;99011.30;265947;118;2944017;31
2021/05/15 12:15:33;;;;;;;1.74;1.63;;;;;;;21.00;46.39;99006.33;316173;117;2199160;-73
2021/05/15 12:17:56;;;;;;;3.01;2.42;;;;;;;21.06;46.45;99007.53;321008;116;2193696;31
2021/05/15 12:20:25;;;;;;;2.93;1.99;;;;;;;21.24;45.20;99007.68;282781;119;2909046;-73
2021/05/15 12:21:32;;;;;;;1.93;1.69;;;;;;;21.15;45.42;99013.47;298436;121;2168700;-72
2021/05/15 12:23:51;;;;;;;4.43;2.13;;;;;;;21.73;45.07;99006.45;320782;116;2192774;-74
2021/05/15 12:26:14;;;;;;;4.47;1.36;;;;;;;21.92;44.59;99017.47;327036;114;2194759;-73
2021/05/15 12:28:37;;;;;;;2.37;1.35;;;;;;;21.88;42.79;99006.52;322178;116;2192577;-74
2021/05/15 12:29:59;;;;;;;2.94;1.36;;;;;;;21.73;42.92;99011.91;300380;122;2169856;-74
2021/05/15 12:32:24;;;;;;;1.59;1.08;;;;;;;21.84;43.27;99005.72;330203;116;2192569;-73
2021/05/15 12:34:43;;;;;;;2.51;1.37;;;;;;;21.66;42.27;99011.88;332115;117;2194729;-73
2021/05/15 12:37:19;;;;;;;8.62;4.05;;;;;;;21.50;42.49;99022.27;331919;117;2193614;-74
2021/05/15 12:39:38;;;;;;;6.60;3.54;;;;;;;20.94;44.74;99016.77;328613;117;2192757;-73
2021/05/15 12:41:58;;;;;;;4.84;2.83;;;;;;;21.05;44.68;99014.95;288505;117;2397166;-74
2021/05/15 12:44:38;;;;;;;5.27;3.83;;;;;;;21.12;44.95;99006.02;332950;117;2173225;-73
2021/05/15 12:46:58;;;;;;;2.17;1.88;;;;;;;21.05;45.78;99012.22;327538;117;2196834;-75
2021/05/15 12:49:18;;;;;;;3.72;2.59;;;;;;;21.02;46.06;99021.12;332652;117;2193729;-73
2021/05/15 12:51:38;;;;;;;4.41;3.06;;;;;;;21.03;46.31;99013.75;332756;117;2194896;-73
2021/05/15 12:53:56;;;;;;;4.43;3.46;;;;;;;20.99;46.44;99013.70;290280;117;2746106;-74
2021/05/15 12:56:31;;;;;;;2.49;2.23;;;;;;;20.87;45.25;99011.26;320522;116;2190504;-74
2021/05/15 12:58:51;;;;;;;2.28;1.71;;;;;;;20.67;45.99;99019.64;325264;117;2194915;-74
2021/05/15 13:01:16;;;;;;;2.68;1.92;;;;;;;20.54;46.22;99015.59;323043;119;2196808;-73
2021/05/15 13:05:09;;;;;;;3.28;1.84;;;;;;;20.65;45.84;99015.72;281480;112;2440920;-73
2021/05/15 13:07:35;;;;;;;2.06;1.79;;;;;;;21.01;45.57;99016.86;317416;116;2192944;-74
2021/05/15 13:09:53;;;;;;;2.03;1.78;;;;;;;21.09;45.44;99028.59;329480;117;2193786;-73
2021/05/15 13:12:31;;;;;;;2.77;1.79;;;;;;;21.22;44.62;99015.44;333385;117;2192617;-73
2021/05/15 13:14:48;;;;;;;3.76;2.54;;;;;;;21.22;44.66;99018.97;305083;117;2447921;-74
2021/05/15 13:17:11;;;;;;;2.35;1.72;;;;;;;21.13;44.82;99023.18;328421;117;2192640;-73
2021/05/15 13:19:27;;;;;;;;;;;;;;;21.15;42.78;99023.57;332980;117;2195727;-72
2021/05/15 13:21:43;;;;;;;1.56;1.39;;;;;;;21.12;42.53;99024.33;315355;115;2190913;-74
2021/05/15 13:24:00;;;;;;;;;;;;;;;20.91;42.65;99025.70;334633;117;2192730;-74
2021/05/15 13:26:24;;;;;;;3.02;1.32;;;;;;;20.78;43.17;99025.20;315909;117;2201701;-74
2021/05/15 13:28:43;;;;;;;2.90;1.50;;;;;;;20.85;42.15;99035.39;329144;117;2192817;-74
2021/05/15 13:31:02;;;;;;;1.49;1.35;;;;;;;20.54;42.70;99026.50;313365;112;2195563;-72
2021/05/15 13:33:26;;;;;;;2.25;1.36;;;;;;;20.56;42.60;99024.17;286680;117;3052047;-73
2021/05/15 13:35:50;;;;;;;1.58;1.32;;;;;;;20.26;43.31;99054.97;286785;117;3000883;-75
2021/05/15 13:38:12;;;;;;;3.31;2.70;;;;;;;19.95;44.32;99020.76;284033;116;2976014;-73
2021/05/15 13:40:29;;;;;;;1.77;1.19;;;;;;;19.99;43.82;99044.14;313918;117;2196675;-73
2021/05/15 13:42:49;;;;;;;4.43;1.54;;;;;;;20.14;43.64;99030.70;305732;117;3168881;-73
2021/05/15 13:45:13;;;;;;;2.44;1.55;;;;;;;20.03;44.73;99036.00;333390;115;2189646;-73
2021/05/15 13:47:31;;;;;;;2.81;1.50;;;;;;;20.00;44.59;99037.55;298451;119;2224218;-74
2021/05/15 13:49:48;;;;;;;2.28;1.29;;;;;;;20.15;44.53;99045.89;325597;117;2195697;-73
2021/05/15 13:52:12;;;;;;;3.28;1.53;;;;;;;20.03;44.81;99042.25;327851;117;2184754;-73
2021/05/15 13:54:31;;;;;;;2.67;1.66;;;;;;;19.92;44.86;99035.89;319617;112;2278678;-73
2021/05/15 13:56:54;;;;;;;1.93;1.68;;;;;;;19.79;45.14;99042.66;330702;117;2192793;-73
2021/05/15 13:59:12;;;;;;;2.14;1.79;;;;;;;19.73;44.92;99039.47;329835;117;2281731;-73
2021/05/15 14:01:35;;;;;;;1.80;1.61;;;;;;;19.80;44.80;99028.72;322149;116;2192695;-74
2021/05/15 14:04:00;;;;;;;1.24;1.13;;;;;;;19.26;45.08;99043.42;326527;114;2191604;-75
2021/05/15 14:06:17;;;;;;;3.78;1.52;;;;;;;19.37;45.06;99024.56;291890;117;2976010;-73
2021/05/15 14:08:54;;;;;;;4.95;3.19;;;;;;;19.16;46.04;99023.88;331375;116;2192568;-74
2021/05/15 14:11:20;;;;;;;2.85;1.54;;;;;;;19.00;47.23;99039.52;332797;117;2196332;-73
2021/05/15 14:13:43;;;;;;;1.48;1.34;;;;;;;19.09;47.20;99028.39;327409;114;2192775;31
2021/05/15 14:16:10;;;;;;;1.78;1.51;;;;;;;18.72;47.34;99020.76;327764;117;2193871;-73
2021/05/15 14:18:27;;;;;;;2.99;1.26;;;;;;;18.74;47.96;99026.60;298014;117;2774963;-73
2021/05/15 14:20:50;;;;;;;2.16;1.25;;;;;;;18.91;45.98;99018.02;333195;117;2192841;-73
2021/05/15 14:23:08;;;;;;;2.16;1.62;;;;;;;18.90;46.11;99011.01;334400;117;2193673;-74
2021/05/15 14:25:34;;;;;;;1.78;1.39;;;;;;;18.78;45.47;99006.52;319288;121;2220617;-73
2021/05/15 14:27:54;;;;;;;1.52;1.02;;;;;;;18.78;45.16;99008.44;327618;117;2194735;-73
2021/05/15 14:30:14;;;;;;;3.91;1.72;;;;;;;18.92;45.15;99011.45;303342;117;2745941;-73
2021/05/15 14:32:41;;;;;;;2.33;1.58;;;;;;;18.94;45.33;99006.42;332049;117;2192689;-73
2021/05/15 14:34:00;;;;;;;3.39;1.86;;;;;;;18.87;45.04;99016.37;294739;119;2173085;-73
2021/05/15 14:36:19;;;;;;;2.24;1.68;;;;;;;18.98;45.01;99007.27;331902;117;2201742;-74
2021/05/15 14:38:38;;;;;;;1.90;1.22;;;;;;;19.13;44.95;98996.62;323435;118;2193667;-73
2021/05/15 14:40:54;;;;;;;1.74;1.29;;;;;;;19.33;43.61;98995.39;332582;117;2193666;-74
2021/05/15 14:43:17;;;;;;;2.71;1.31;;;;;;;19.48;43.21;98995.59;330999;117;2192549;-74
2021/05/15 14:45:38;;;;;;;1.76;1.20;;;;;;;19.68;43.08;99001.72;321621;119;2194332;-74
2021/05/15 14:48:02;;;;;;;1.97;1.12;;;;;;;19.31;43.17;98946.01;288811;119;2763031;-74
2021/05/15 14:50:19;;;;;;;1.74;1.00;;;;;;;19.85;42.57;99011.30;303047;119;2193660;-73
2021/05/15 14:52:37;;;;;;;1.12;1.00;;;;;;;19.98;42.25;99012.63;285641;117;3081980;-74
2021/05/15 14:55:11;;;;;;;2.78;1.17;;;;;;;20.12;42.57;99014.73;333104;117;2193103;-73
2021/05/15 14:57:28;;;;;;;1.35;1.14;;;;;;;20.27;42.62;99012.17;330120;117;2197896;-73
2021/05/15 14:59:48;;;;;;;5.87;4.78;;;;;;;20.39;42.10;99020.09;327192;112;2193586;-74
2021/05/15 15:02:25;;;;;;;3.88;1.19;;;;;;;20.49;41.58;99018.65;333114;116;2193771;-74
2021/05/15 15:03:30;;;;;;;3.65;1.28;;;;;;;20.49;41.93;99021.38;317575;118;2168634;-74
2021/05/15 15:04:36;;;;;;;2.17;1.29;;;;;;;20.52;41.50;99023.34;316076;118;2169756;-74
2021/05/15 15:05:45;;;;;;;1.92;1.15;;;;;;;20.51;41.76;99019.08;315546;119;2169657;-73
2021/05/15 15:06:51;;;;;;;1.03;0.86;;;;;;;20.55;41.69;99019.90;279470;118;2905981;-74
2021/05/15 15:07:58;;;;;;;1.99;1.03;;;;;;;20.52;40.37;99017.90;297064;119;2168848;-74
2021/05/15 15:09:05;;;;;;;1.76;0.96;;;;;;;20.61;39.96;99010.22;315540;119;2168893;-74
2021/05/15 15:10:13;;;;;;;2.19;1.03;;;;;;;20.52;39.98;99021.42;316190;119;2168702;-74
2021/05/15 15:11:19;;;;;;;1.29;1.02;;;;;;;20.22;41.14;99020.70;277129;118;2921936;-74
2021/05/15 15:13:55;;;;;;;1.37;0.94;;;;;;;20.51;40.69;99016.35;333250;117;2189752;-73
2021/05/15 15:15:00;;;;;;;1.14;0.90;;;;;;;20.27;40.38;99012.98;316374;119;2168778;-73
2021/05/15 15:16:07;;;;;;;3.49;1.02;;;;;;;20.32;40.81;99018.08;315325;119;2169785;-73
2021/05/15 15:18:27;;;;;;;1.74;1.10;;;;;;;20.77;40.64;99017.41;316575;112;2194714;-74
2021/05/15 15:19:32;;;;;;;2.91;1.14;;;;;;;20.74;40.64;99018.94;296195;118;2170697;-74
2021/05/15 15:20:39;;;;;;;3.11;1.07;;;;;;;20.62;40.47;99017.24;308458;118;2170825;-73
2021/05/15 15:21:46;;;;;;;1.71;1.07;;;;;;;20.74;40.55;99020.88;307533;118;2168834;-75
2021/05/15 15:24:06;;;;;;;2.11;1.08;;;;;;;20.99;39.94;99021.88;291593;112;3144915;-72
2021/05/15 15:26:31;;;;;;;;;;;;;;;20.87;40.10;99030.34;336045;117;2192733;-73
2021/05/15 15:29:00;;;;;;;1.36;0.81;;;;;;;20.41;40.84;99027.89;322490;120;2242585;-73
2021/05/15 15:31:19;;;;;;;1.56;0.92;;;;;;;20.28;41.36;99014.52;332847;117;2194724;-73
2021/05/15 15:32:24;;;;;;;1.32;0.99;;;;;;;20.17;41.29;99030.76;295605;116;2170067;-73
2021/05/15 15:33:37;;;;;;;1.45;0.84;;;;;;;20.19;41.24;99019.49;289800;127;2170748;-73
2021/05/15 15:35:57;;;;;;;1.87;0.94;;;;;;;20.35;41.24;99019.27;332627;117;2193813;-74
2021/05/15 15:37:04;;;;;;;1.34;1.04;;;;;;;20.29;41.18;99023.50;271706;118;2381330;-73
2021/05/15 15:38:09;;;;;;;1.11;0.88;;;;;;;20.36;40.83;99016.17;294930;124;2169675;-73
2021/05/15 15:39:17;;;;;;;1.19;0.89;;;;;;;20.41;40.90;99027.89;307660;114;2170712;-74
2021/05/15 15:40:23;;;;;;;1.64;0.94;;;;;;;20.32;41.05;99026.24;307442;117;2426890;-73
2021/05/15 15:41:30;;;;;;;1.52;1.06;;;;;;;20.25;41.27;99017.22;320328;117;2168764;-73
2021/05/15 15:42:37;;;;;;;3.92;0.87;;;;;;;20.22;41.44;99020.70;296808;117;3101845;-74
2021/05/15 15:45:05;;;;;;;1.20;0.91;;;;;;;20.14;41.60;99017.09;287941;116;3184889;-73
2021/05/15 15:47:27;;;;;;;1.91;0.90;;;;;;;19.97;42.16;99021.94;333190;112;2193788;31
2021/05/15 15:48:32;;;;;;;1.37;1.19;;;;;;;19.99;42.03;99022.36;293234;120;2168684;-73
2021/05/15 15:49:40;;;;;;;1.88;0.99;;;;;;;20.01;42.13;99017.32;299222;122;2168855;-73
2021/05/15 15:50:47;;;;;;;2.08;1.09;;;;;;;19.91;42.38;99017.98;298087;117;2169772;31
2021/05/15 15:53:05;;;;;;;1.19;1.03;;;;;;;20.23;42.17;99025.77;321024;114;2276642;-72
2021/05/15 15:55:41;;;;;;;1.49;0.98;;;;;;;20.28;42.06;99013.75;325691;116;2192660;-73
2021/05/15 15:56:47;;;;;;;3.16;1.26;;;;;;;20.16;41.84;99017.52;287047;120;2168824;-72